sensor_id;sensor_type;location;lat;lon;timestamp;P1;durP1;ratioP1;P2;durP2;ratioP2
63370;SDS011;49504;48.336;14.472;2023-05-29T00:01:30;3.90;;;1.60;;
63370;SDS011;49504;48.336;14.472;2023-05-29T00:04:52;4.15;;;1.80;;
63370;SDS011;49504;48.336;14.472;2023-05-29T00:08:13;4.63;;;1.67;;
63370;SDS011;49504;48.336;14.472;2023-05-29T00:11:34;3.90;;;1.48;;
63370;SDS011;49504;48.336;14.472;2023-05-29T00:14:55;3.90;;;1.60;;
63370;SDS011;49504;48.336;14.472;2023-05-29T00:18:17;4.35;;;1.70;;
63370;SDS011;49504;48.336;14.472;2023-05-29T00:21:39;4.90;;;1.60;;
63370;SDS011;49504;48.336;14.472;2023-05-29T00:25:00;3.58;;;1.27;;
63370;SDS011;49504;48.336;14.472;2023-05-29T00:28:21;3.55;;;1.42;;
63370;SDS011;49504;48.336;14.472;2023-05-29T00:31:43;4.35;;;1.58;;
63370;SDS011;49504;48.336;14.472;2023-05-29T00:35:04;4.53;;;1.50;;
63370;SDS011;49504;48.336;14.472;2023-05-29T00:38:28;4.88;;;1.88;;
63370;SDS011;49504;48.336;14.472;2023-05-29T00:41:49;5.75;;;1.63;;
63370;SDS011;49504;48.336;14.472;2023-05-29T00:45:10;3.88;;;1.60;;
63370;SDS011;49504;48.336;14.472;2023-05-29T00:48:31;3.58;;;1.50;;
63370;SDS011;49504;48.336;14.472;2023-05-29T00:51:53;3.83;;;1.60;;
63370;SDS011;49504;48.336;14.472;2023-05-29T00:55:16;4.85;;;1.90;;
63370;SDS011;49504;48.336;14.472;2023-05-29T00:58:37;4.20;;;1.92;;
63370;SDS011;49504;48.336;14.472;2023-05-29T01:01:59;3.72;;;1.60;;
63370;SDS011;49504;48.336;14.472;2023-05-29T01:05:22;3.38;;;1.45;;
63370;SDS011;49504;48.336;14.472;2023-05-29T01:08:43;4.40;;;1.88;;
63370;SDS011;49504;48.336;14.472;2023-05-29T01:12:12;3.72;;;1.40;;
63370;SDS011;49504;48.336;14.472;2023-05-29T01:15:44;4.40;;;1.60;;
63370;SDS011;49504;48.336;14.472;2023-05-29T01:19:16;4.57;;;1.50;;
63370;SDS011;49504;48.336;14.472;2023-05-29T01:23:00;3.75;;;1.65;;
63370;SDS011;49504;48.336;14.472;2023-05-29T01:26:50;3.88;;;1.63;;
63370;SDS011;49504;48.336;14.472;2023-05-29T01:30:16;4.63;;;1.73;;
63370;SDS011;49504;48.336;14.472;2023-05-29T01:33:39;3.97;;;1.75;;
63370;SDS011;49504;48.336;14.472;2023-05-29T01:37:00;3.80;;;1.48;;
63370;SDS011;49504;48.336;14.472;2023-05-29T01:40:23;3.92;;;1.60;;
63370;SDS011;49504;48.336;14.472;2023-05-29T01:43:47;3.97;;;1.50;;
63370;SDS011;49504;48.336;14.472;2023-05-29T01:47:11;4.07;;;1.60;;
63370;SDS011;49504;48.336;14.472;2023-05-29T01:50:33;4.00;;;1.73;;
63370;SDS011;49504;48.336;14.472;2023-05-29T01:53:55;3.53;;;1.40;;
63370;SDS011;49504;48.336;14.472;2023-05-29T01:57:17;3.83;;;1.30;;
63370;SDS011;49504;48.336;14.472;2023-05-29T02:00:40;3.85;;;1.55;;
63370;SDS011;49504;48.336;14.472;2023-05-29T02:04:02;3.40;;;1.42;;
63370;SDS011;49504;48.336;14.472;2023-05-29T02:07:23;4.22;;;1.50;;
63370;SDS011;49504;48.336;14.472;2023-05-29T02:10:44;3.30;;;1.20;;
63370;SDS011;49504;48.336;14.472;2023-05-29T02:15:04;4.13;;;1.85;;
63370;SDS011;49504;48.336;14.472;2023-05-29T02:18:27;4.47;;;1.35;;
63370;SDS011;49504;48.336;14.472;2023-05-29T02:23:57;3.47;;;1.38;;
63370;SDS011;49504;48.336;14.472;2023-05-29T02:27:18;4.57;;;1.70;;
63370;SDS011;49504;48.336;14.472;2023-05-29T02:30:39;3.75;;;1.35;;
63370;SDS011;49504;48.336;14.472;2023-05-29T02:34:03;3.55;;;1.40;;
63370;SDS011;49504;48.336;14.472;2023-05-29T02:37:24;4.28;;;1.55;;
63370;SDS011;49504;48.336;14.472;2023-05-29T02:40:46;3.38;;;1.30;;
63370;SDS011;49504;48.336;14.472;2023-05-29T02:44:08;4.22;;;1.83;;
63370;SDS011;49504;48.336;14.472;2023-05-29T02:47:29;3.47;;;1.30;;
63370;SDS011;49504;48.336;14.472;2023-05-29T02:50:51;2.80;;;1.15;;
63370;SDS011;49504;48.336;14.472;2023-05-29T02:54:12;3.60;;;1.52;;
63370;SDS011;49504;48.336;14.472;2023-05-29T02:57:36;3.95;;;1.65;;
63370;SDS011;49504;48.336;14.472;2023-05-29T03:00:57;4.88;;;1.70;;
63370;SDS011;49504;48.336;14.472;2023-05-29T03:04:20;3.40;;;1.33;;
63370;SDS011;49504;48.336;14.472;2023-05-29T03:07:41;3.83;;;1.58;;
63370;SDS011;49504;48.336;14.472;2023-05-29T03:11:02;5.03;;;1.60;;
63370;SDS011;49504;48.336;14.472;2023-05-29T03:14:25;3.60;;;1.48;;
63370;SDS011;49504;48.336;14.472;2023-05-29T03:17:46;3.33;;;1.38;;
63370;SDS011;49504;48.336;14.472;2023-05-29T03:24:30;3.53;;;1.30;;
63370;SDS011;49504;48.336;14.472;2023-05-29T03:27:52;3.50;;;1.50;;
63370;SDS011;49504;48.336;14.472;2023-05-29T03:31:14;3.80;;;1.60;;
63370;SDS011;49504;48.336;14.472;2023-05-29T03:34:35;3.40;;;1.40;;
63370;SDS011;49504;48.336;14.472;2023-05-29T03:37:59;3.88;;;1.63;;
63370;SDS011;49504;48.336;14.472;2023-05-29T03:41:21;3.08;;;1.35;;
63370;SDS011;49504;48.336;14.472;2023-05-29T03:44:45;3.92;;;1.63;;
63370;SDS011;49504;48.336;14.472;2023-05-29T03:48:06;3.20;;;1.35;;
63370;SDS011;49504;48.336;14.472;2023-05-29T03:51:27;4.03;;;1.45;;
63370;SDS011;49504;48.336;14.472;2023-05-29T03:54:50;3.83;;;1.48;;
63370;SDS011;49504;48.336;14.472;2023-05-29T03:58:13;3.30;;;1.30;;
63370;SDS011;49504;48.336;14.472;2023-05-29T04:01:34;3.22;;;1.33;;
63370;SDS011;49504;48.336;14.472;2023-05-29T04:04:56;3.88;;;1.70;;
63370;SDS011;49504;48.336;14.472;2023-05-29T04:08:17;3.63;;;1.40;;
63370;SDS011;49504;48.336;14.472;2023-05-29T04:11:38;4.65;;;1.58;;
63370;SDS011;49504;48.336;14.472;2023-05-29T04:15:00;3.05;;;1.27;;
63370;SDS011;49504;48.336;14.472;2023-05-29T04:18:22;3.78;;;1.10;;
63370;SDS011;49504;48.336;14.472;2023-05-29T04:21:43;5.75;;;1.60;;
63370;SDS011;49504;48.336;14.472;2023-05-29T04:25:04;3.80;;;1.45;;
63370;SDS011;49504;48.336;14.472;2023-05-29T04:28:26;2.95;;;1.30;;
63370;SDS011;49504;48.336;14.472;2023-05-29T04:31:50;2.65;;;1.02;;
63370;SDS011;49504;48.336;14.472;2023-05-29T04:35:11;3.83;;;1.40;;
63370;SDS011;49504;48.336;14.472;2023-05-29T04:38:37;3.53;;;1.58;;
63370;SDS011;49504;48.336;14.472;2023-05-29T04:42:00;3.33;;;1.20;;
63370;SDS011;49504;48.336;14.472;2023-05-29T04:45:22;3.50;;;1.20;;
63370;SDS011;49504;48.336;14.472;2023-05-29T04:48:45;3.15;;;1.33;;
63370;SDS011;49504;48.336;14.472;2023-05-29T04:52:07;3.88;;;1.25;;
63370;SDS011;49504;48.336;14.472;2023-05-29T04:55:28;3.92;;;1.30;;
63370;SDS011;49504;48.336;14.472;2023-05-29T04:58:50;3.15;;;1.10;;
63370;SDS011;49504;48.336;14.472;2023-05-29T05:02:11;5.13;;;2.00;;
63370;SDS011;49504;48.336;14.472;2023-05-29T05:05:33;3.78;;;1.60;;
63370;SDS011;49504;48.336;14.472;2023-05-29T05:08:55;5.50;;;1.50;;
63370;SDS011;49504;48.336;14.472;2023-05-29T05:12:17;4.70;;;1.27;;
63370;SDS011;49504;48.336;14.472;2023-05-29T05:15:38;3.60;;;1.45;;
63370;SDS011;49504;48.336;14.472;2023-05-29T05:18:59;3.58;;;1.23;;
63370;SDS011;49504;48.336;14.472;2023-05-29T05:22:22;3.92;;;1.38;;
63370;SDS011;49504;48.336;14.472;2023-05-29T05:25:44;4.13;;;1.63;;
63370;SDS011;49504;48.336;14.472;2023-05-29T05:29:05;4.35;;;1.80;;
63370;SDS011;49504;48.336;14.472;2023-05-29T05:32:28;4.95;;;1.67;;
63370;SDS011;49504;48.336;14.472;2023-05-29T05:35:56;3.80;;;1.45;;
63370;SDS011;49504;48.336;14.472;2023-05-29T05:39:19;3.63;;;1.20;;
63370;SDS011;49504;48.336;14.472;2023-05-29T05:42:41;3.97;;;1.45;;
63370;SDS011;49504;48.336;14.472;2023-05-29T05:46:04;3.67;;;1.65;;
63370;SDS011;49504;48.336;14.472;2023-05-29T05:49:27;3.30;;;1.40;;
63370;SDS011;49504;48.336;14.472;2023-05-29T05:52:48;4.43;;;1.65;;
63370;SDS011;49504;48.336;14.472;2023-05-29T05:56:11;3.75;;;1.80;;
63370;SDS011;49504;48.336;14.472;2023-05-29T05:59:33;4.15;;;1.58;;
63370;SDS011;49504;48.336;14.472;2023-05-29T06:02:57;4.05;;;1.63;;
63370;SDS011;49504;48.336;14.472;2023-05-29T06:06:40;4.30;;;1.63;;
63370;SDS011;49504;48.336;14.472;2023-05-29T06:10:02;6.50;;;1.75;;
63370;SDS011;49504;48.336;14.472;2023-05-29T06:13:26;3.85;;;1.45;;
63370;SDS011;49504;48.336;14.472;2023-05-29T06:16:52;4.15;;;1.67;;
63370;SDS011;49504;48.336;14.472;2023-05-29T06:20:13;4.95;;;2.03;;
63370;SDS011;49504;48.336;14.472;2023-05-29T06:23:35;4.53;;;1.42;;
63370;SDS011;49504;48.336;14.472;2023-05-29T06:26:56;4.07;;;1.67;;
63370;SDS011;49504;48.336;14.472;2023-05-29T06:30:19;3.88;;;1.60;;
63370;SDS011;49504;48.336;14.472;2023-05-29T06:33:42;4.30;;;1.60;;
63370;SDS011;49504;48.336;14.472;2023-05-29T06:37:04;4.10;;;1.95;;
63370;SDS011;49504;48.336;14.472;2023-05-29T06:40:25;3.50;;;1.27;;
63370;SDS011;49504;48.336;14.472;2023-05-29T06:43:46;4.82;;;1.90;;
63370;SDS011;49504;48.336;14.472;2023-05-29T06:47:09;3.17;;;1.30;;
63370;SDS011;49504;48.336;14.472;2023-05-29T06:50:30;5.45;;;1.90;;
63370;SDS011;49504;48.336;14.472;2023-05-29T06:53:59;3.92;;;1.65;;
63370;SDS011;49504;48.336;14.472;2023-05-29T06:57:22;3.85;;;1.77;;
63370;SDS011;49504;48.336;14.472;2023-05-29T07:00:43;3.53;;;1.40;;
63370;SDS011;49504;48.336;14.472;2023-05-29T07:07:41;3.90;;;1.58;;
63370;SDS011;49504;48.336;14.472;2023-05-29T07:11:04;5.32;;;1.70;;
63370;SDS011;49504;48.336;14.472;2023-05-29T07:14:26;4.32;;;1.45;;
63370;SDS011;49504;48.336;14.472;2023-05-29T07:17:47;4.22;;;1.38;;
63370;SDS011;49504;48.336;14.472;2023-05-29T07:21:17;3.92;;;1.60;;
63370;SDS011;49504;48.336;14.472;2023-05-29T07:24:38;3.60;;;1.40;;
63370;SDS011;49504;48.336;14.472;2023-05-29T07:28:00;3.92;;;1.70;;
63370;SDS011;49504;48.336;14.472;2023-05-29T07:31:23;3.58;;;1.35;;
63370;SDS011;49504;48.336;14.472;2023-05-29T07:37:05;3.45;;;1.58;;
63370;SDS011;49504;48.336;14.472;2023-05-29T07:44:11;4.10;;;1.42;;
63370;SDS011;49504;48.336;14.472;2023-05-29T07:47:33;4.18;;;2.00;;
63370;SDS011;49504;48.336;14.472;2023-05-29T07:50:54;3.65;;;1.20;;
63370;SDS011;49504;48.336;14.472;2023-05-29T07:54:18;4.88;;;1.80;;
63370;SDS011;49504;48.336;14.472;2023-05-29T07:57:40;4.05;;;1.60;;
63370;SDS011;49504;48.336;14.472;2023-05-29T08:01:02;4.18;;;1.50;;
63370;SDS011;49504;48.336;14.472;2023-05-29T08:04:23;4.22;;;1.63;;
63370;SDS011;49504;48.336;14.472;2023-05-29T08:07:45;5.88;;;2.05;;
63370;SDS011;49504;48.336;14.472;2023-05-29T08:11:08;4.20;;;1.63;;
63370;SDS011;49504;48.336;14.472;2023-05-29T08:14:29;4.88;;;1.67;;
63370;SDS011;49504;48.336;14.472;2023-05-29T08:17:50;5.07;;;1.70;;
63370;SDS011;49504;48.336;14.472;2023-05-29T08:21:12;4.93;;;1.92;;
63370;SDS011;49504;48.336;14.472;2023-05-29T08:24:33;3.85;;;1.70;;
63370;SDS011;49504;48.336;14.472;2023-05-29T08:27:55;4.50;;;1.70;;
63370;SDS011;49504;48.336;14.472;2023-05-29T08:31:17;3.70;;;1.40;;
63370;SDS011;49504;48.336;14.472;2023-05-29T08:34:38;3.65;;;1.48;;
63370;SDS011;49504;48.336;14.472;2023-05-29T08:38:00;3.50;;;1.48;;
63370;SDS011;49504;48.336;14.472;2023-05-29T08:41:30;4.05;;;1.80;;
63370;SDS011;49504;48.336;14.472;2023-05-29T08:45:05;3.47;;;1.33;;
63370;SDS011;49504;48.336;14.472;2023-05-29T08:48:30;5.40;;;2.08;;
63370;SDS011;49504;48.336;14.472;2023-05-29T08:51:53;4.88;;;1.83;;
63370;SDS011;49504;48.336;14.472;2023-05-29T08:55:22;6.03;;;2.10;;
63370;SDS011;49504;48.336;14.472;2023-05-29T08:58:43;5.70;;;2.15;;
63370;SDS011;49504;48.336;14.472;2023-05-29T09:02:07;7.40;;;3.10;;
63370;SDS011;49504;48.336;14.472;2023-05-29T09:08:09;9.95;;;3.13;;
63370;SDS011;49504;48.336;14.472;2023-05-29T09:11:31;14.95;;;4.10;;
63370;SDS011;49504;48.336;14.472;2023-05-29T09:14:52;11.00;;;4.47;;
63370;SDS011;49504;48.336;14.472;2023-05-29T09:18:16;8.77;;;3.08;;
63370;SDS011;49504;48.336;14.472;2023-05-29T09:21:37;9.35;;;3.35;;
63370;SDS011;49504;48.336;14.472;2023-05-29T09:25:00;7.25;;;3.00;;
63370;SDS011;49504;48.336;14.472;2023-05-29T09:28:21;6.78;;;2.70;;
63370;SDS011;49504;48.336;14.472;2023-05-29T09:31:45;5.65;;;1.98;;
63370;SDS011;49504;48.336;14.472;2023-05-29T09:35:06;8.82;;;2.40;;
63370;SDS011;49504;48.336;14.472;2023-05-29T09:38:29;5.88;;;2.10;;
63370;SDS011;49504;48.336;14.472;2023-05-29T09:41:52;6.53;;;2.10;;
63370;SDS011;49504;48.336;14.472;2023-05-29T09:47:10;5.63;;;2.10;;
63370;SDS011;49504;48.336;14.472;2023-05-29T09:50:34;6.03;;;2.17;;
63370;SDS011;49504;48.336;14.472;2023-05-29T09:53:56;5.50;;;2.15;;
63370;SDS011;49504;48.336;14.472;2023-05-29T09:57:17;5.43;;;2.25;;
63370;SDS011;49504;48.336;14.472;2023-05-29T10:00:39;8.05;;;2.42;;
63370;SDS011;49504;48.336;14.472;2023-05-29T10:04:07;4.95;;;2.25;;
63370;SDS011;49504;48.336;14.472;2023-05-29T10:07:36;4.03;;;1.50;;
63370;SDS011;49504;48.336;14.472;2023-05-29T10:10:59;5.15;;;2.20;;
63370;SDS011;49504;48.336;14.472;2023-05-29T10:15:36;4.38;;;1.65;;
63370;SDS011;49504;48.336;14.472;2023-05-29T10:18:58;4.15;;;1.92;;
63370;SDS011;49504;48.336;14.472;2023-05-29T10:22:21;4.53;;;1.88;;
63370;SDS011;49504;48.336;14.472;2023-05-29T10:25:45;6.33;;;2.10;;
63370;SDS011;49504;48.336;14.472;2023-05-29T10:29:12;3.75;;;1.40;;
63370;SDS011;49504;48.336;14.472;2023-05-29T10:32:44;4.30;;;1.75;;
63370;SDS011;49504;48.336;14.472;2023-05-29T10:36:25;5.00;;;1.60;;
63370;SDS011;49504;48.336;14.472;2023-05-29T10:39:53;6.32;;;1.50;;
63370;SDS011;49504;48.336;14.472;2023-05-29T10:43:30;5.15;;;2.00;;
63370;SDS011;49504;48.336;14.472;2023-05-29T10:47:01;3.97;;;1.65;;
63370;SDS011;49504;48.336;14.472;2023-05-29T10:50:59;5.55;;;1.98;;
63370;SDS011;49504;48.336;14.472;2023-05-29T10:54:21;3.67;;;1.63;;
63370;SDS011;49504;48.336;14.472;2023-05-29T10:57:46;4.07;;;1.90;;
63370;SDS011;49504;48.336;14.472;2023-05-29T11:01:08;4.65;;;2.15;;
63370;SDS011;49504;48.336;14.472;2023-05-29T11:04:29;6.10;;;1.85;;
63370;SDS011;49504;48.336;14.472;2023-05-29T11:07:52;6.13;;;1.98;;
63370;SDS011;49504;48.336;14.472;2023-05-29T11:11:28;6.68;;;2.22;;
63370;SDS011;49504;48.336;14.472;2023-05-29T11:16:36;6.05;;;2.10;;
63370;SDS011;49504;48.336;14.472;2023-05-29T11:20:00;5.05;;;1.98;;
63370;SDS011;49504;48.336;14.472;2023-05-29T11:23:24;8.32;;;1.80;;
63370;SDS011;49504;48.336;14.472;2023-05-29T11:26:51;5.72;;;1.95;;
63370;SDS011;49504;48.336;14.472;2023-05-29T11:30:14;6.10;;;1.98;;
63370;SDS011;49504;48.336;14.472;2023-05-29T11:33:38;5.60;;;2.15;;
63370;SDS011;49504;48.336;14.472;2023-05-29T11:37:01;7.38;;;2.30;;
63370;SDS011;49504;48.336;14.472;2023-05-29T11:40:23;5.35;;;1.95;;
63370;SDS011;49504;48.336;14.472;2023-05-29T11:43:44;4.68;;;1.65;;
63370;SDS011;49504;48.336;14.472;2023-05-29T11:47:16;4.13;;;1.83;;
63370;SDS011;49504;48.336;14.472;2023-05-29T11:50:38;5.57;;;2.03;;
63370;SDS011;49504;48.336;14.472;2023-05-29T11:54:00;4.78;;;1.45;;
63370;SDS011;49504;48.336;14.472;2023-05-29T11:57:21;6.18;;;1.80;;
63370;SDS011;49504;48.336;14.472;2023-05-29T12:00:43;5.85;;;1.80;;
63370;SDS011;49504;48.336;14.472;2023-05-29T12:04:14;7.63;;;2.03;;
63370;SDS011;49504;48.336;14.472;2023-05-29T12:07:38;3.47;;;1.42;;
63370;SDS011;49504;48.336;14.472;2023-05-29T12:10:59;4.50;;;1.67;;
63370;SDS011;49504;48.336;14.472;2023-05-29T12:14:20;5.07;;;1.73;;
63370;SDS011;49504;48.336;14.472;2023-05-29T12:17:41;5.80;;;2.17;;
63370;SDS011;49504;48.336;14.472;2023-05-29T12:21:03;5.13;;;1.77;;
63370;SDS011;49504;48.336;14.472;2023-05-29T12:24:26;4.47;;;1.80;;
63370;SDS011;49504;48.336;14.472;2023-05-29T12:27:48;6.70;;;2.75;;
63370;SDS011;49504;48.336;14.472;2023-05-29T12:31:09;4.82;;;1.80;;
63370;SDS011;49504;48.336;14.472;2023-05-29T12:34:33;4.78;;;1.80;;
63370;SDS011;49504;48.336;14.472;2023-05-29T12:37:55;5.20;;;1.80;;
63370;SDS011;49504;48.336;14.472;2023-05-29T12:41:23;4.07;;;1.80;;
63370;SDS011;49504;48.336;14.472;2023-05-29T12:44:45;4.53;;;1.75;;
63370;SDS011;49504;48.336;14.472;2023-05-29T12:50:45;5.03;;;1.92;;
63370;SDS011;49504;48.336;14.472;2023-05-29T12:57:07;5.75;;;2.10;;
63370;SDS011;49504;48.336;14.472;2023-05-29T13:00:28;5.28;;;1.98;;
63370;SDS011;49504;48.336;14.472;2023-05-29T13:03:49;4.10;;;2.00;;
63370;SDS011;49504;48.336;14.472;2023-05-29T13:07:10;4.85;;;1.50;;
63370;SDS011;49504;48.336;14.472;2023-05-29T13:10:31;4.35;;;1.65;;
63370;SDS011;49504;48.336;14.472;2023-05-29T13:15:16;5.53;;;2.10;;
63370;SDS011;49504;48.336;14.472;2023-05-29T13:18:38;4.50;;;1.75;;
63370;SDS011;49504;48.336;14.472;2023-05-29T13:21:59;4.10;;;1.88;;
63370;SDS011;49504;48.336;14.472;2023-05-29T13:25:20;4.95;;;1.98;;
63370;SDS011;49504;48.336;14.472;2023-05-29T13:30:35;5.40;;;2.05;;
63370;SDS011;49504;48.336;14.472;2023-05-29T13:33:56;4.65;;;2.05;;
63370;SDS011;49504;48.336;14.472;2023-05-29T13:37:18;3.85;;;1.75;;
63370;SDS011;49504;48.336;14.472;2023-05-29T13:40:39;4.45;;;1.83;;
63370;SDS011;49504;48.336;14.472;2023-05-29T13:44:00;4.05;;;1.67;;
63370;SDS011;49504;48.336;14.472;2023-05-29T13:47:23;3.72;;;1.55;;
63370;SDS011;49504;48.336;14.472;2023-05-29T13:50:44;4.15;;;1.60;;
63370;SDS011;49504;48.336;14.472;2023-05-29T13:54:05;5.43;;;1.65;;
63370;SDS011;49504;48.336;14.472;2023-05-29T13:57:29;3.90;;;1.45;;
63370;SDS011;49504;48.336;14.472;2023-05-29T14:00:54;4.60;;;1.73;;
63370;SDS011;49504;48.336;14.472;2023-05-29T14:04:19;4.18;;;1.75;;
63370;SDS011;49504;48.336;14.472;2023-05-29T14:07:55;4.95;;;1.92;;
63370;SDS011;49504;48.336;14.472;2023-05-29T14:11:16;4.97;;;1.92;;
63370;SDS011;49504;48.336;14.472;2023-05-29T14:14:37;4.97;;;2.00;;
63370;SDS011;49504;48.336;14.472;2023-05-29T14:17:58;4.68;;;1.75;;
63370;SDS011;49504;48.336;14.472;2023-05-29T14:21:22;3.47;;;1.52;;
63370;SDS011;49504;48.336;14.472;2023-05-29T14:24:45;3.50;;;1.52;;
63370;SDS011;49504;48.336;14.472;2023-05-29T14:28:06;4.38;;;1.80;;
63370;SDS011;49504;48.336;14.472;2023-05-29T14:31:27;4.40;;;1.77;;
63370;SDS011;49504;48.336;14.472;2023-05-29T14:34:48;6.18;;;1.58;;
63370;SDS011;49504;48.336;14.472;2023-05-29T14:38:11;3.95;;;1.83;;
63370;SDS011;49504;48.336;14.472;2023-05-29T14:41:32;4.07;;;1.92;;
63370;SDS011;49504;48.336;14.472;2023-05-29T14:44:53;3.72;;;1.50;;
63370;SDS011;49504;48.336;14.472;2023-05-29T14:48:14;4.72;;;1.73;;
63370;SDS011;49504;48.336;14.472;2023-05-29T14:53:15;4.40;;;1.58;;
63370;SDS011;49504;48.336;14.472;2023-05-29T14:56:37;5.70;;;2.00;;
63370;SDS011;49504;48.336;14.472;2023-05-29T14:59:58;3.67;;;1.35;;
63370;SDS011;49504;48.336;14.472;2023-05-29T15:04:25;3.42;;;1.42;;
63370;SDS011;49504;48.336;14.472;2023-05-29T15:07:46;3.85;;;1.60;;
63370;SDS011;49504;48.336;14.472;2023-05-29T15:11:07;4.07;;;1.73;;
63370;SDS011;49504;48.336;14.472;2023-05-29T15:14:29;3.78;;;1.50;;
63370;SDS011;49504;48.336;14.472;2023-05-29T15:17:50;3.88;;;1.60;;
63370;SDS011;49504;48.336;14.472;2023-05-29T15:21:13;3.88;;;1.52;;
63370;SDS011;49504;48.336;14.472;2023-05-29T15:24:34;3.65;;;1.45;;
63370;SDS011;49504;48.336;14.472;2023-05-29T15:27:56;3.95;;;1.50;;
63370;SDS011;49504;48.336;14.472;2023-05-29T15:31:17;3.70;;;1.38;;
63370;SDS011;49504;48.336;14.472;2023-05-29T15:34:38;4.65;;;1.92;;
63370;SDS011;49504;48.336;14.472;2023-05-29T15:38:01;3.90;;;1.70;;
63370;SDS011;49504;48.336;14.472;2023-05-29T15:41:22;5.20;;;1.60;;
63370;SDS011;49504;48.336;14.472;2023-05-29T15:44:43;3.40;;;1.50;;
63370;SDS011;49504;48.336;14.472;2023-05-29T15:48:11;5.00;;;1.58;;
63370;SDS011;49504;48.336;14.472;2023-05-29T15:51:32;4.45;;;1.67;;
63370;SDS011;49504;48.336;14.472;2023-05-29T15:58:35;5.88;;;1.75;;
63370;SDS011;49504;48.336;14.472;2023-05-29T16:01:57;4.70;;;1.70;;
63370;SDS011;49504;48.336;14.472;2023-05-29T16:05:18;4.10;;;1.70;;
63370;SDS011;49504;48.336;14.472;2023-05-29T16:08:39;3.63;;;1.20;;
63370;SDS011;49504;48.336;14.472;2023-05-29T16:12:00;5.53;;;1.52;;
63370;SDS011;49504;48.336;14.472;2023-05-29T16:15:23;4.72;;;1.67;;
63370;SDS011;49504;48.336;14.472;2023-05-29T16:18:44;3.88;;;1.65;;
63370;SDS011;49504;48.336;14.472;2023-05-29T16:22:05;4.90;;;1.65;;
63370;SDS011;49504;48.336;14.472;2023-05-29T16:25:53;4.00;;;1.67;;
63370;SDS011;49504;48.336;14.472;2023-05-29T16:29:14;3.53;;;1.38;;
63370;SDS011;49504;48.336;14.472;2023-05-29T16:32:35;3.35;;;1.40;;
63370;SDS011;49504;48.336;14.472;2023-05-29T16:35:56;4.55;;;1.70;;
63370;SDS011;49504;48.336;14.472;2023-05-29T16:42:17;5.45;;;1.45;;
63370;SDS011;49504;48.336;14.472;2023-05-29T16:45:39;5.65;;;1.90;;
63370;SDS011;49504;48.336;14.472;2023-05-29T16:49:00;4.30;;;1.67;;
63370;SDS011;49504;48.336;14.472;2023-05-29T16:52:21;3.28;;;1.35;;
63370;SDS011;49504;48.336;14.472;2023-05-29T16:55:42;3.85;;;1.63;;
63370;SDS011;49504;48.336;14.472;2023-05-29T16:59:05;3.70;;;1.50;;
63370;SDS011;49504;48.336;14.472;2023-05-29T17:02:26;3.38;;;1.40;;
63370;SDS011;49504;48.336;14.472;2023-05-29T17:05:48;4.10;;;1.52;;
63370;SDS011;49504;48.336;14.472;2023-05-29T17:09:09;3.53;;;1.38;;
63370;SDS011;49504;48.336;14.472;2023-05-29T17:12:31;3.50;;;1.20;;
63370;SDS011;49504;48.336;14.472;2023-05-29T17:15:53;4.30;;;1.55;;
63370;SDS011;49504;48.336;14.472;2023-05-29T17:19:14;4.00;;;1.63;;
63370;SDS011;49504;48.336;14.472;2023-05-29T17:22:35;4.38;;;1.42;;
63370;SDS011;49504;48.336;14.472;2023-05-29T17:25:57;5.03;;;1.63;;
63370;SDS011;49504;48.336;14.472;2023-05-29T17:29:18;4.53;;;1.63;;
63370;SDS011;49504;48.336;14.472;2023-05-29T17:32:41;4.97;;;1.92;;
63370;SDS011;49504;48.336;14.472;2023-05-29T17:38:38;3.63;;;1.50;;
63370;SDS011;49504;48.336;14.472;2023-05-29T17:42:00;4.10;;;1.52;;
63370;SDS011;49504;48.336;14.472;2023-05-29T17:45:21;3.95;;;1.80;;
63370;SDS011;49504;48.336;14.472;2023-05-29T17:48:42;4.93;;;1.92;;
63370;SDS011;49504;48.336;14.472;2023-05-29T17:53:24;5.00;;;1.50;;
63370;SDS011;49504;48.336;14.472;2023-05-29T17:56:46;5.32;;;1.77;;
63370;SDS011;49504;48.336;14.472;2023-05-29T18:00:07;5.45;;;1.70;;
63370;SDS011;49504;48.336;14.472;2023-05-29T18:05:42;5.63;;;2.08;;
63370;SDS011;49504;48.336;14.472;2023-05-29T18:09:03;7.72;;;2.53;;
63370;SDS011;49504;48.336;14.472;2023-05-29T18:12:26;4.45;;;2.17;;
63370;SDS011;49504;48.336;14.472;2023-05-29T18:17:44;3.60;;;1.83;;
63370;SDS011;49504;48.336;14.472;2023-05-29T18:21:06;6.85;;;2.70;;
63370;SDS011;49504;48.336;14.472;2023-05-29T18:24:27;5.13;;;1.90;;
63370;SDS011;49504;48.336;14.472;2023-05-29T18:27:48;7.38;;;2.35;;
63370;SDS011;49504;48.336;14.472;2023-05-29T18:31:09;4.20;;;1.77;;
63370;SDS011;49504;48.336;14.472;2023-05-29T18:34:37;6.15;;;1.80;;
63370;SDS011;49504;48.336;14.472;2023-05-29T18:38:03;3.78;;;1.50;;
63370;SDS011;49504;48.336;14.472;2023-05-29T18:41:24;5.28;;;2.30;;
63370;SDS011;49504;48.336;14.472;2023-05-29T18:44:45;4.07;;;1.83;;
63370;SDS011;49504;48.336;14.472;2023-05-29T18:48:06;4.45;;;1.55;;
63370;SDS011;49504;48.336;14.472;2023-05-29T18:51:29;3.95;;;1.83;;
63370;SDS011;49504;48.336;14.472;2023-05-29T18:54:50;7.50;;;2.25;;
63370;SDS011;49504;48.336;14.472;2023-05-29T18:58:12;5.07;;;1.88;;
63370;SDS011;49504;48.336;14.472;2023-05-29T19:01:33;3.63;;;1.33;;
63370;SDS011;49504;48.336;14.472;2023-05-29T19:04:54;5.20;;;2.00;;
63370;SDS011;49504;48.336;14.472;2023-05-29T19:08:17;5.20;;;1.50;;
63370;SDS011;49504;48.336;14.472;2023-05-29T19:13:51;4.72;;;1.67;;
63370;SDS011;49504;48.336;14.472;2023-05-29T19:18:09;5.80;;;2.00;;
63370;SDS011;49504;48.336;14.472;2023-05-29T19:24:13;4.97;;;1.70;;
63370;SDS011;49504;48.336;14.472;2023-05-29T19:27:34;3.58;;;1.42;;
63370;SDS011;49504;48.336;14.472;2023-05-29T19:30:56;4.70;;;1.90;;
63370;SDS011;49504;48.336;14.472;2023-05-29T19:34:17;4.82;;;1.65;;
63370;SDS011;49504;48.336;14.472;2023-05-29T19:37:38;5.70;;;2.30;;
63370;SDS011;49504;48.336;14.472;2023-05-29T19:41:01;4.10;;;1.83;;
63370;SDS011;49504;48.336;14.472;2023-05-29T19:44:22;3.92;;;1.35;;
63370;SDS011;49504;48.336;14.472;2023-05-29T19:49:27;3.92;;;1.40;;
63370;SDS011;49504;48.336;14.472;2023-05-29T19:52:48;4.45;;;1.58;;
63370;SDS011;49504;48.336;14.472;2023-05-29T19:56:10;5.85;;;2.15;;
63370;SDS011;49504;48.336;14.472;2023-05-29T19:59:31;3.65;;;1.30;;
63370;SDS011;49504;48.336;14.472;2023-05-29T20:02:53;4.60;;;1.80;;
63370;SDS011;49504;48.336;14.472;2023-05-29T20:06:15;4.07;;;1.63;;
63370;SDS011;49504;48.336;14.472;2023-05-29T20:09:36;4.47;;;1.63;;
63370;SDS011;49504;48.336;14.472;2023-05-29T20:12:57;4.05;;;1.42;;
63370;SDS011;49504;48.336;14.472;2023-05-29T20:16:18;4.65;;;1.77;;
63370;SDS011;49504;48.336;14.472;2023-05-29T20:19:39;4.65;;;2.15;;
63370;SDS011;49504;48.336;14.472;2023-05-29T20:23:02;5.18;;;1.58;;
63370;SDS011;49504;48.336;14.472;2023-05-29T20:26:23;3.92;;;1.70;;
63370;SDS011;49504;48.336;14.472;2023-05-29T20:29:44;4.63;;;1.65;;
63370;SDS011;49504;48.336;14.472;2023-05-29T20:33:05;4.43;;;1.80;;
63370;SDS011;49504;48.336;14.472;2023-05-29T20:36:26;4.13;;;1.75;;
63370;SDS011;49504;48.336;14.472;2023-05-29T20:39:49;4.57;;;1.80;;
63370;SDS011;49504;48.336;14.472;2023-05-29T20:43:10;3.08;;;1.25;;
63370;SDS011;49504;48.336;14.472;2023-05-29T20:46:31;3.15;;;1.38;;
63370;SDS011;49504;48.336;14.472;2023-05-29T20:49:52;3.50;;;1.50;;
63370;SDS011;49504;48.336;14.472;2023-05-29T20:53:13;3.35;;;1.50;;
63370;SDS011;49504;48.336;14.472;2023-05-29T20:56:36;4.50;;;1.60;;
63370;SDS011;49504;48.336;14.472;2023-05-29T20:59:57;5.40;;;1.75;;